sensor_id;sensor_type;location;lat;lon;timestamp;pressure;altitude;pressure_sealevel;temperature;humidity
61472;BME280;47337;54.068;12.114;2022-12-29T00:00:06;99914.69;;;7.63;100.00
61472;BME280;47337;54.068;12.114;2022-12-29T00:02:32;99917.34;;;7.66;100.00
61472;BME280;47337;54.068;12.114;2022-12-29T00:04:58;99914.69;;;7.61;100.00
61472;BME280;47337;54.068;12.114;2022-12-29T00:07:23;99913.94;;;7.78;100.00
61472;BME280;47337;54.068;12.114;2022-12-29T00:09:48;99910.44;;;7.72;100.00
61472;BME280;47337;54.068;12.114;2022-12-29T00:12:14;99903.47;;;7.73;100.00
61472;BME280;47337;54.068;12.114;2022-12-29T00:14:42;99899.03;;;7.63;100.00
61472;BME280;47337;54.068;12.114;2022-12-29T00:17:26;99905.97;;;7.58;100.00
61472;BME280;47337;54.068;12.114;2022-12-29T00:19:51;99892.03;;;7.59;100.00
61472;BME280;47337;54.068;12.114;2022-12-29T00:22:35;99899.03;;;7.63;100.00
61472;BME280;47337;54.068;12.114;2022-12-29T00:25:19;99895.47;;;7.55;100.00
61472;BME280;47337;54.068;12.114;2022-12-29T00:28:04;99889.47;;;7.62;100.00
61472;BME280;47337;54.068;12.114;2022-12-29T00:30:48;99896.41;;;7.60;100.00
61472;BME280;47337;54.068;12.114;2022-12-29T00:33:33;99891.13;;;7.55;100.00
61472;BME280;47337;54.068;12.114;2022-12-29T00:36:27;99885.16;;;7.70;100.00
61472;BME280;47337;54.068;12.114;2022-12-29T00:39:04;99881.63;;;7.65;100.00
61472;BME280;47337;54.068;12.114;2022-12-29T00:41:51;99879.97;;;7.73;100.00
61472;BME280;47337;54.068;12.114;2022-12-29T00:44:35;99882.53;;;7.68;100.00
61472;BME280;47337;54.068;12.114;2022-12-29T00:47:02;99886.84;;;7.62;100.00
61472;BME280;47337;54.068;12.114;2022-12-29T00:49:29;99878.22;;;7.75;100.00
61472;BME280;47337;54.068;12.114;2022-12-29T00:52:02;99872.19;;;7.87;100.00
61472;BME280;47337;54.068;12.114;2022-12-29T00:54:33;99883.44;;;7.75;100.00
61472;BME280;47337;54.068;12.114;2022-12-29T00:57:02;99884.28;;;7.69;100.00
61472;BME280;47337;54.068;12.114;2022-12-29T00:59:28;99875.59;;;7.70;100.00
61472;BME280;47337;54.068;12.114;2022-12-29T01:01:54;99873.94;;;7.85;100.00
61472;BME280;47337;54.068;12.114;2022-12-29T01:04:21;99880.84;;;7.72;100.00
61472;BME280;47337;54.068;12.114;2022-12-29T01:06:50;99880.78;;;7.67;100.00
61472;BME280;47337;54.068;12.114;2022-12-29T01:09:16;99873.81;;;7.68;100.00
61472;BME280;47337;54.068;12.114;2022-12-29T01:12:00;99881.75;;;7.80;100.00
61472;BME280;47337;54.068;12.114;2022-12-29T01:14:31;99872.13;;;7.71;100.00
61472;BME280;47337;54.068;12.114;2022-12-29T01:16:57;99889.53;;;7.74;100.00
61472;BME280;47337;54.068;12.114;2022-12-29T01:19:23;99887.88;;;7.82;100.00
61472;BME280;47337;54.068;12.114;2022-12-29T01:21:51;99885.25;;;7.82;100.00
61472;BME280;47337;54.068;12.114;2022-12-29T01:24:18;99886.13;;;7.83;100.00
61472;BME280;47337;54.068;12.114;2022-12-29T01:26:47;99879.09;;;7.77;100.00
61472;BME280;47337;54.068;12.114;2022-12-29T01:29:12;99880.00;;;7.81;100.00
61472;BME280;47337;54.068;12.114;2022-12-29T01:31:38;99887.00;;;7.83;100.00
61472;BME280;47337;54.068;12.114;2022-12-29T01:34:04;99886.13;;;7.83;100.00
61472;BME280;47337;54.068;12.114;2022-12-29T01:36:30;99891.34;;;7.86;100.00
61472;BME280;47337;54.068;12.114;2022-12-29T01:38:56;99886.16;;;7.87;100.00
61472;BME280;47337;54.068;12.114;2022-12-29T01:41:21;99887.88;;;7.87;100.00
61472;BME280;47337;54.068;12.114;2022-12-29T01:43:52;99891.38;;;7.89;100.00
61472;BME280;47337;54.068;12.114;2022-12-29T01:46:40;99885.34;;;7.97;100.00
61472;BME280;47337;54.068;12.114;2022-12-29T01:49:19;99873.16;;;7.99;100.00
61472;BME280;47337;54.068;12.114;2022-12-29T01:51:52;99853.97;;;7.97;100.00
61472;BME280;47337;54.068;12.114;2022-12-29T01:54:24;99842.66;;;7.97;100.00
61472;BME280;47337;54.068;12.114;2022-12-29T01:56:58;99832.19;;;7.97;100.00
61472;BME280;47337;54.068;12.114;2022-12-29T01:59:28;99831.34;;;7.93;100.00
61472;BME280;47337;54.068;12.114;2022-12-29T02:01:57;99821.75;;;7.92;100.00
61472;BME280;47337;54.068;12.114;2022-12-29T02:04:24;99838.31;;;7.94;100.00
61472;BME280;47337;54.068;12.114;2022-12-29T02:06:55;99838.31;;;7.99;100.00
61472;BME280;47337;54.068;12.114;2022-12-29T02:09:23;99840.09;;;8.01;100.00
61472;BME280;47337;54.068;12.114;2022-12-29T02:11:51;99836.56;;;7.99;100.00
61472;BME280;47337;54.068;12.114;2022-12-29T02:14:17;99834.88;;;8.04;100.00
61472;BME280;47337;54.068;12.114;2022-12-29T02:35:46;99814.88;;;8.14;100.00
61472;BME280;47337;54.068;12.114;2022-12-29T02:38:28;99813.16;;;8.15;100.00
61472;BME280;47337;54.068;12.114;2022-12-29T02:41:07;99809.66;;;8.16;100.00
61472;BME280;47337;54.068;12.114;2022-12-29T02:49:09;99796.63;;;8.25;100.00
61472;BME280;47337;54.068;12.114;2022-12-29T02:51:43;99787.88;;;8.17;100.00
61472;BME280;47337;54.068;12.114;2022-12-29T02:54:10;99793.06;;;8.11;100.00
61472;BME280;47337;54.068;12.114;2022-12-29T02:56:54;99791.31;;;8.09;100.00
61472;BME280;47337;54.068;12.114;2022-12-29T02:59:20;99793.13;;;8.15;100.00
61472;BME280;47337;54.068;12.114;2022-12-29T03:02:05;99782.66;;;8.14;100.00
61472;BME280;47337;54.068;12.114;2022-12-29T03:07:43;99782.63;;;8.11;100.00
61472;BME280;47337;54.068;12.114;2022-12-29T03:10:19;99773.06;;;8.16;100.00
61472;BME280;47337;54.068;12.114;2022-12-29T03:16:34;99763.47;;;8.12;100.00
61472;BME280;47337;54.068;12.114;2022-12-29T03:19:05;99754.75;;;8.17;100.00
61472;BME280;47337;54.068;12.114;2022-12-29T03:21:43;99760.88;;;8.19;100.00
61472;BME280;47337;54.068;12.114;2022-12-29T03:24:31;99763.50;;;8.24;100.00
61472;BME280;47337;54.068;12.114;2022-12-29T03:27:02;99767.06;;;8.32;100.00
61472;BME280;47337;54.068;12.114;2022-12-29T03:29:31;99769.63;;;8.30;100.00
61472;BME280;47337;54.068;12.114;2022-12-29T03:31:59;99773.19;;;8.41;100.00
61472;BME280;47337;54.068;12.114;2022-12-29T03:34:25;99767.06;;;8.38;100.00
61472;BME280;47337;54.068;12.114;2022-12-29T03:36:59;99769.72;;;8.46;100.00
61472;BME280;47337;54.068;12.114;2022-12-29T03:39:26;99770.59;;;8.46;100.00
61472;BME280;47337;54.068;12.114;2022-12-29T03:41:59;99755.75;;;8.48;100.00
61472;BME280;47337;54.068;12.114;2022-12-29T03:44:35;99760.09;;;8.48;100.00
61472;BME280;47337;54.068;12.114;2022-12-29T03:47:02;99763.59;;;8.48;100.00
61472;BME280;47337;54.068;12.114;2022-12-29T03:49:27;99767.97;;;8.51;100.00
61472;BME280;47337;54.068;12.114;2022-12-29T03:51:57;99768.81;;;8.48;100.00
61472;BME280;47337;54.068;12.114;2022-12-29T03:54:23;99762.72;;;8.49;100.00
61472;BME280;47337;54.068;12.114;2022-12-29T03:56:51;99756.69;;;8.68;100.00
61472;BME280;47337;54.068;12.114;2022-12-29T03:59:16;99748.81;;;8.58;100.00
61472;BME280;47337;54.068;12.114;2022-12-29T04:01:41;99754.94;;;8.64;100.00
61472;BME280;47337;54.068;12.114;2022-12-29T04:04:09;99755.78;;;8.57;100.00
61472;BME280;47337;54.068;12.114;2022-12-29T04:06:35;99746.19;;;8.59;100.00
61472;BME280;47337;54.068;12.114;2022-12-29T04:09:00;99741.84;;;8.69;100.00
61472;BME280;47337;54.068;12.114;2022-12-29T04:11:26;99741.84;;;8.82;100.00
61472;BME280;47337;54.068;12.114;2022-12-29T04:13:53;99734.00;;;8.70;100.00
61472;BME280;47337;54.068;12.114;2022-12-29T04:16:19;99734.00;;;8.66;100.00
61472;BME280;47337;54.068;12.114;2022-12-29T04:18:44;99727.00;;;8.63;100.00
61472;BME280;47337;54.068;12.114;2022-12-29T04:21:10;99725.28;;;8.62;100.00
61472;BME280;47337;54.068;12.114;2022-12-29T04:23:37;99718.25;;;8.49;100.00
61472;BME280;47337;54.068;12.114;2022-12-29T04:26:04;99714.78;;;8.59;100.00
61472;BME280;47337;54.068;12.114;2022-12-29T04:28:32;99713.03;;;8.58;100.00
61472;BME280;47337;54.068;12.114;2022-12-29T04:30:57;99706.09;;;8.53;100.00
61472;BME280;47337;54.068;12.114;2022-12-29T04:33:23;99707.84;;;8.55;100.00
61472;BME280;47337;54.068;12.114;2022-12-29T04:35:48;99698.25;;;8.57;100.00
61472;BME280;47337;54.068;12.114;2022-12-29T04:38:14;99691.28;;;8.55;100.00
61472;BME280;47337;54.068;12.114;2022-12-29T04:40:41;99692.13;;;8.55;100.00
61472;BME280;47337;54.068;12.114;2022-12-29T04:43:08;99698.25;;;8.72;100.00
61472;BME280;47337;54.068;12.114;2022-12-29T04:45:33;99687.78;;;8.71;100.00
61472;BME280;47337;54.068;12.114;2022-12-29T04:47:59;99695.66;;;8.78;100.00
61472;BME280;47337;54.068;12.114;2022-12-29T04:50:24;99686.91;;;8.73;100.00
61472;BME280;47337;54.068;12.114;2022-12-29T04:52:50;99681.69;;;8.73;100.00
61472;BME280;47337;54.068;12.114;2022-12-29T04:55:18;99674.72;;;8.66;100.00
61472;BME280;47337;54.068;12.114;2022-12-29T04:57:46;99661.59;;;8.94;100.00
61472;BME280;47337;54.068;12.114;2022-12-29T05:00:12;99647.59;;;9.14;100.00
61472;BME280;47337;54.068;12.114;2022-12-29T05:02:38;99661.59;;;8.95;100.00
61472;BME280;47337;54.068;12.114;2022-12-29T05:05:04;99658.13;;;8.79;100.00
61472;BME280;47337;54.068;12.114;2022-12-29T05:07:30;99645.91;;;9.00;100.00
61472;BME280;47337;54.068;12.114;2022-12-29T05:09:55;99644.16;;;8.99;100.00
61472;BME280;47337;54.068;12.114;2022-12-29T05:12:23;99645.00;;;9.04;100.00
61472;BME280;47337;54.068;12.114;2022-12-29T05:14:48;99642.44;;;8.86;100.00
61472;BME280;47337;54.068;12.114;2022-12-29T05:17:14;99629.34;;;8.82;100.00
61472;BME280;47337;54.068;12.114;2022-12-29T05:19:39;99638.06;;;8.86;100.00
61472;BME280;47337;54.068;12.114;2022-12-29T05:22:07;99634.56;;;8.92;100.00
61472;BME280;47337;54.068;12.114;2022-12-29T05:24:32;99633.69;;;8.91;100.00
61472;BME280;47337;54.068;12.114;2022-12-29T05:27:00;99631.91;;;9.04;100.00
61472;BME280;47337;54.068;12.114;2022-12-29T05:29:25;99623.22;;;8.97;100.00
61472;BME280;47337;54.068;12.114;2022-12-29T05:31:51;99618.81;;;9.13;100.00
61472;BME280;47337;54.068;12.114;2022-12-29T05:34:16;99614.47;;;9.09;100.00
61472;BME280;47337;54.068;12.114;2022-12-29T05:36:41;99604.91;;;8.99;100.00
61472;BME280;47337;54.068;12.114;2022-12-29T05:39:09;99611.84;;;9.01;100.00
61472;BME280;47337;54.068;12.114;2022-12-29T05:41:37;99608.38;;;9.04;100.00
61472;BME280;47337;54.068;12.114;2022-12-29T05:44:03;99603.13;;;9.04;100.00
61472;BME280;47337;54.068;12.114;2022-12-29T05:46:28;99597.06;;;9.00;100.00
61472;BME280;47337;54.068;12.114;2022-12-29T05:48:54;99587.41;;;9.01;100.00
61472;BME280;47337;54.068;12.114;2022-12-29T05:51:19;99579.59;;;8.98;100.00
61472;BME280;47337;54.068;12.114;2022-12-29T05:53:44;99580.44;;;9.06;100.00
61472;BME280;47337;54.068;12.114;2022-12-29T05:56:12;99575.22;;;9.07;100.00
61472;BME280;47337;54.068;12.114;2022-12-29T05:58:38;99568.22;;;9.02;100.00
61472;BME280;47337;54.068;12.114;2022-12-29T06:01:05;99569.97;;;9.10;100.00
61472;BME280;47337;54.068;12.114;2022-12-29T06:03:31;99562.97;;;9.17;100.00
61472;BME280;47337;54.068;12.114;2022-12-29T06:05:56;99555.94;;;9.25;100.00
61472;BME280;47337;54.068;12.114;2022-12-29T06:08:21;99556.81;;;9.23;100.00
61472;BME280;47337;54.068;12.114;2022-12-29T06:10:49;99551.56;;;9.23;100.00
61472;BME280;47337;54.068;12.114;2022-12-29T06:13:14;99555.06;;;9.25;100.00
61472;BME280;47337;54.068;12.114;2022-12-29T06:15:40;99546.34;;;9.26;100.00
61472;BME280;47337;54.068;12.114;2022-12-29T06:18:06;99548.06;;;9.31;100.00
61472;BME280;47337;54.068;12.114;2022-12-29T06:20:31;99549.00;;;9.21;100.00
61472;BME280;47337;54.068;12.114;2022-12-29T06:22:57;99557.72;;;9.17;100.00
61472;BME280;47337;54.068;12.114;2022-12-29T06:25:25;99562.97;;;9.22;100.00
61472;BME280;47337;54.068;12.114;2022-12-29T06:27:55;99555.94;;;9.28;100.00
61472;BME280;47337;54.068;12.114;2022-12-29T06:30:21;99558.53;;;9.30;100.00
61472;BME280;47337;54.068;12.114;2022-12-29T06:32:46;99547.16;;;9.40;100.00
61472;BME280;47337;54.068;12.114;2022-12-29T06:35:15;99544.53;;;9.40;100.00
61472;BME280;47337;54.068;12.114;2022-12-29T06:37:40;99552.38;;;9.41;100.00
61472;BME280;47337;54.068;12.114;2022-12-29T06:40:06;99554.09;;;9.45;100.00
61472;BME280;47337;54.068;12.114;2022-12-29T06:42:31;99548.84;;;9.48;100.00
61472;BME280;47337;54.068;12.114;2022-12-29T06:44:59;99554.09;;;9.48;100.00
61472;BME280;47337;54.068;12.114;2022-12-29T06:47:25;99554.13;;;9.39;100.00
61472;BME280;47337;54.068;12.114;2022-12-29T06:49:53;99555.84;;;9.46;100.00
61472;BME280;47337;54.068;12.114;2022-12-29T06:52:19;99561.94;;;9.47;100.00
61472;BME280;47337;54.068;12.114;2022-12-29T06:54:44;99568.09;;;9.38;100.00
61472;BME280;47337;54.068;12.114;2022-12-29T06:57:09;99568.97;;;9.40;100.00
61472;BME280;47337;54.068;12.114;2022-12-29T06:59:35;99575.94;;;9.43;100.00
61472;BME280;47337;54.068;12.114;2022-12-29T07:02:00;99583.78;;;9.44;100.00
61472;BME280;47337;54.068;12.114;2022-12-29T07:04:27;99574.13;;;9.55;100.00
61472;BME280;47337;54.068;12.114;2022-12-29T07:06:53;99582.91;;;9.45;100.00
61472;BME280;47337;54.068;12.114;2022-12-29T07:09:18;99573.34;;;9.38;100.00
61472;BME280;47337;54.068;12.114;2022-12-29T07:11:44;99575.09;;;9.39;100.00
61472;BME280;47337;54.068;12.114;2022-12-29T07:14:10;99573.28;;;9.50;100.00
61472;BME280;47337;54.068;12.114;2022-12-29T07:16:36;99572.44;;;9.44;100.00
61472;BME280;47337;54.068;12.114;2022-12-29T07:19:02;99586.41;;;9.46;100.00
61472;BME280;47337;54.068;12.114;2022-12-29T07:21:28;99591.47;;;9.76;100.00
61472;BME280;47337;54.068;12.114;2022-12-29T07:23:54;99594.19;;;9.58;100.00
61472;BME280;47337;54.068;12.114;2022-12-29T07:26:19;99585.47;;;9.61;100.00
61472;BME280;47337;54.068;12.114;2022-12-29T07:28:45;99592.44;;;9.62;100.00
61472;BME280;47337;54.068;12.114;2022-12-29T07:31:15;99577.56;;;9.71;100.00
61472;BME280;47337;54.068;12.114;2022-12-29T07:33:42;99584.59;;;9.62;100.00
61472;BME280;47337;54.068;12.114;2022-12-29T07:36:08;99589.72;;;9.75;100.00
61472;BME280;47337;54.068;12.114;2022-12-29T07:38:36;99598.47;;;9.77;100.00
61472;BME280;47337;54.068;12.114;2022-12-29T07:41:01;99593.16;;;9.88;100.00
61472;BME280;47337;54.068;12.114;2022-12-29T07:43:31;99576.69;;;9.68;100.00
61472;BME280;47337;54.068;12.114;2022-12-29T07:45:56;99564.47;;;9.65;100.00
61472;BME280;47337;54.068;12.114;2022-12-29T07:48:24;99562.78;;;9.57;100.00
61472;BME280;47337;54.068;12.114;2022-12-29T07:50:50;99551.47;;;9.50;100.00
61472;BME280;47337;54.068;12.114;2022-12-29T07:53:15;99547.13;;;9.44;100.00
61472;BME280;47337;54.068;12.114;2022-12-29T07:55:41;99544.50;;;9.47;100.00
61472;BME280;47337;54.068;12.114;2022-12-29T07:58:06;99536.59;;;9.53;100.00
61472;BME280;47337;54.068;12.114;2022-12-29T08:00:32;99527.03;;;9.48;100.00
61472;BME280;47337;54.068;12.114;2022-12-29T08:03:00;99526.16;;;9.47;100.00
61472;BME280;47337;54.068;12.114;2022-12-29T08:05:25;99510.44;;;9.50;100.00
61472;BME280;47337;54.068;12.114;2022-12-29T08:07:53;99522.66;;;9.48;100.00
61472;BME280;47337;54.068;12.114;2022-12-29T08:10:18;99531.38;;;9.50;100.00
61472;BME280;47337;54.068;12.114;2022-12-29T08:12:44;99528.78;;;9.44;100.00
61472;BME280;47337;54.068;12.114;2022-12-29T08:15:10;99536.63;;;9.44;100.00
61472;BME280;47337;54.068;12.114;2022-12-29T08:17:36;99533.13;;;9.51;100.00
61472;BME280;47337;54.068;12.114;2022-12-29T08:20:05;99534.94;;;9.42;100.00
61472;BME280;47337;54.068;12.114;2022-12-29T08:22:31;99529.69;;;9.34;100.00
61472;BME280;47337;54.068;12.114;2022-12-29T08:24:59;99527.03;;;9.43;100.00
61472;BME280;47337;54.068;12.114;2022-12-29T08:27:25;99534.00;;;9.49;100.00
61472;BME280;47337;54.068;12.114;2022-12-29T08:29:51;99545.28;;;9.62;100.00
61472;BME280;47337;54.068;12.114;2022-12-29T08:32:18;99534.84;;;9.55;100.00
61472;BME280;47337;54.068;12.114;2022-12-29T08:34:46;99543.53;;;9.61;100.00
61472;BME280;47337;54.068;12.114;2022-12-29T08:37:12;99540.88;;;9.68;100.00
61472;BME280;47337;54.068;12.114;2022-12-29T08:39:37;99541.69;;;9.75;100.00
61472;BME280;47337;54.068;12.114;2022-12-29T08:42:05;99550.41;;;9.84;100.00
61472;BME280;47337;54.068;12.114;2022-12-29T08:44:31;99553.03;;;9.84;100.00
61472;BME280;47337;54.068;12.114;2022-12-29T08:46:56;99542.53;;;9.84;100.00
61472;BME280;47337;54.068;12.114;2022-12-29T08:49:22;99544.22;;;9.91;100.00
61472;BME280;47337;54.068;12.114;2022-12-29T08:51:47;99545.97;;;9.91;100.00
61472;BME280;47337;54.068;12.114;2022-12-29T08:54:12;99546.84;;;9.91;100.00
61472;BME280;47337;54.068;12.114;2022-12-29T08:56:38;99549.47;;;9.93;100.00
61472;BME280;47337;54.068;12.114;2022-12-29T08:59:03;99554.63;;;10.04;100.00
61472;BME280;47337;54.068;12.114;2022-12-29T09:01:33;99564.25;;;10.00;100.00
61472;BME280;47337;54.068;12.114;2022-12-29T09:04:03;99553.75;;;10.03;100.00
61472;BME280;47337;54.068;12.114;2022-12-29T09:06:28;99567.81;;;9.93;100.00
61472;BME280;47337;54.068;12.114;2022-12-29T09:08:56;99562.50;;;9.99;100.00
61472;BME280;47337;54.068;12.114;2022-12-29T09:11:23;99569.56;;;9.91;100.00
61472;BME280;47337;54.068;12.114;2022-12-29T09:13:49;99573.06;;;9.90;100.00
61472;BME280;47337;54.068;12.114;2022-12-29T09:16:22;99571.28;;;9.95;100.00
61472;BME280;47337;54.068;12.114;2022-12-29T09:18:50;99561.69;;;9.94;100.00
61472;BME280;47337;54.068;12.114;2022-12-29T09:21:16;99564.31;;;9.93;100.00
61472;BME280;47337;54.068;12.114;2022-12-29T09:23:42;99578.31;;;9.90;100.00
61472;BME280;47337;54.068;12.114;2022-12-29T09:26:08;99585.34;;;9.85;100.00
61472;BME280;47337;54.068;12.114;2022-12-29T09:28:33;99574.78;;;9.96;100.00
61472;BME280;47337;54.068;12.114;2022-12-29T09:30:59;99577.44;;;9.88;100.00
61472;BME280;47337;54.068;12.114;2022-12-29T09:33:27;99569.63;;;9.85;100.00
61472;BME280;47337;54.068;12.114;2022-12-29T09:35:55;99564.25;;;10.00;100.00
61472;BME280;47337;54.068;12.114;2022-12-29T09:38:22;99557.31;;;9.91;100.00
61472;BME280;47337;54.068;12.114;2022-12-29T09:40:55;99566.06;;;9.92;100.00
61472;BME280;47337;54.068;12.114;2022-12-29T09:43:43;99574.84;;;9.85;100.00
61472;BME280;47337;54.068;12.114;2022-12-29T09:46:28;99594.03;;;9.87;100.00
61472;BME280;47337;54.068;12.114;2022-12-29T09:49:44;99588.84;;;9.81;100.00
61472;BME280;47337;54.068;12.114;2022-12-29T09:52:35;99574.88;;;9.82;100.00
61472;BME280;47337;54.068;12.114;2022-12-29T09:55:04;99573.94;;;9.87;100.00
61472;BME280;47337;54.068;12.114;2022-12-29T09:57:42;99583.59;;;9.84;100.00
61472;BME280;47337;54.068;12.114;2022-12-29T10:00:14;99599.28;;;9.87;100.00
61472;BME280;47337;54.068;12.114;2022-12-29T10:02:49;99591.41;;;9.95;100.00
61472;BME280;47337;54.068;12.114;2022-12-29T10:10:34;99576.34;;;10.22;100.00
61472;BME280;47337;54.068;12.114;2022-12-29T10:23:53;99545.78;;;10.21;100.00
61472;BME280;47337;54.068;12.114;2022-12-29T10:26:23;99557.06;;;10.30;100.00
61472;BME280;47337;54.068;12.114;2022-12-29T10:29:16;99553.34;;;10.55;100.00
61472;BME280;47337;54.068;12.114;2022-12-29T10:32:00;99543.50;;;10.80;100.00
61472;BME280;47337;54.068;12.114;2022-12-29T10:34:36;99530.25;;;10.90;100.00
61472;BME280;47337;54.068;12.114;2022-12-29T10:37:11;99540.75;;;10.90;100.00
61472;BME280;47337;54.068;12.114;2022-12-29T10:39:50;99524.81;;;11.04;100.00
61472;BME280;47337;54.068;12.114;2022-12-29T10:42:29;99521.28;;;11.07;100.00
61472;BME280;47337;54.068;12.114;2022-12-29T10:45:04;99515.06;;;11.14;100.00
61472;BME280;47337;54.068;12.114;2022-12-29T10:47:35;99512.50;;;11.12;100.00
61472;BME280;47337;54.068;12.114;2022-12-29T10:50:04;99510.88;;;10.99;100.00
61472;BME280;47337;54.068;12.114;2022-12-29T10:52:33;99505.56;;;11.04;100.00
61472;BME280;47337;54.068;12.114;2022-12-29T10:55:10;99512.41;;;11.17;100.00
61472;BME280;47337;54.068;12.114;2022-12-29T10:57:41;99512.41;;;11.17;100.00
61472;BME280;47337;54.068;12.114;2022-12-29T11:00:17;99509.03;;;11.06;100.00
61472;BME280;47337;54.068;12.114;2022-12-29T11:08:30;99491.53;;;11.08;100.00
61472;BME280;47337;54.068;12.114;2022-12-29T11:11:04;99488.03;;;11.06;100.00
61472;BME280;47337;54.068;12.114;2022-12-29T11:13:32;99474.91;;;11.07;100.00
61472;BME280;47337;54.068;12.114;2022-12-29T11:16:00;99469.56;;;11.13;100.00
61472;BME280;47337;54.068;12.114;2022-12-29T11:18:37;99472.41;;;10.96;100.00
61472;BME280;47337;54.068;12.114;2022-12-29T11:21:27;99468.28;;;10.74;100.00
61472;BME280;47337;54.068;12.114;2022-12-29T11:24:18;99467.56;;;10.60;100.00
61472;BME280;47337;54.068;12.114;2022-12-29T11:26:46;99465.81;;;10.62;100.00
61472;BME280;47337;54.068;12.114;2022-12-29T11:31:55;99460.63;;;10.59;100.00
61472;BME280;47337;54.068;12.114;2022-12-29T11:34:35;99457.81;;;10.73;100.00
61472;BME280;47337;54.068;12.114;2022-12-29T11:37:03;99443.91;;;10.66;100.00
61472;BME280;47337;54.068;12.114;2022-12-29T11:42:06;99436.06;;;10.63;100.00
61472;BME280;47337;54.068;12.114;2022-12-29T11:44:41;99431.81;;;10.51;100.00
61472;BME280;47337;54.068;12.114;2022-12-29T11:47:23;99423.13;;;10.46;100.00
61472;BME280;47337;54.068;12.114;2022-12-29T11:49:58;99430.16;;;10.44;100.00
61472;BME280;47337;54.068;12.114;2022-12-29T11:52:26;99438.94;;;10.40;100.00
61472;BME280;47337;54.068;12.114;2022-12-29T11:54:54;99432.78;;;10.43;100.00
61472;BME280;47337;54.068;12.114;2022-12-29T11:57:21;99429.19;;;10.53;100.00
61472;BME280;47337;54.068;12.114;2022-12-29T11:59:49;99430.75;;;10.69;100.00
61472;BME280;47337;54.068;12.114;2022-12-29T12:04:45;99419.91;;;10.96;100.00
61472;BME280;47337;54.068;12.114;2022-12-29T12:07:15;99423.16;;;11.14;100.00
61472;BME280;47337;54.068;12.114;2022-12-29T12:09:58;99417.69;;;11.29;100.00
61472;BME280;47337;54.068;12.114;2022-12-29T12:12:47;99401.06;;;11.28;100.00
61472;BME280;47337;54.068;12.114;2022-12-29T12:15:39;99387.19;;;11.20;100.00
61472;BME280;47337;54.068;12.114;2022-12-29T12:18:10;99389.97;;;11.08;100.00
61472;BME280;47337;54.068;12.114;2022-12-29T12:20:50;99384.75;;;11.07;100.00
61472;BME280;47337;54.068;12.114;2022-12-29T12:23:25;99392.03;;;10.86;100.00
61472;BME280;47337;54.068;12.114;2022-12-29T12:31:41;99394.81;;;10.74;100.00
61472;BME280;47337;54.068;12.114;2022-12-29T12:34:15;99395.72;;;10.70;100.00
61472;BME280;47337;54.068;12.114;2022-12-29T12:39:27;99385.16;;;10.76;100.00
61472;BME280;47337;54.068;12.114;2022-12-29T12:44:52;99390.53;;;10.67;100.00
61472;BME280;47337;54.068;12.114;2022-12-29T12:53:38;99392.41;;;10.56;100.00
61472;BME280;47337;54.068;12.114;2022-12-29T13:02:11;99397.66;;;10.56;100.00
61472;BME280;47337;54.068;12.114;2022-12-29T13:15:55;99393.06;;;10.73;100.00
61472;BME280;47337;54.068;12.114;2022-12-29T13:24:20;99405.16;;;10.85;100.00
61472;BME280;47337;54.068;12.114;2022-12-29T13:26:59;99406.91;;;10.86;100.00
61472;BME280;47337;54.068;12.114;2022-12-29T13:37:09;99401.66;;;10.86;100.00
61472;BME280;47337;54.068;12.114;2022-12-29T13:39:47;99405.13;;;10.88;100.00
61472;BME280;47337;54.068;12.114;2022-12-29T13:42:16;99399.03;;;10.84;100.00
61472;BME280;47337;54.068;12.114;2022-12-29T13:44:47;99386.88;;;10.80;100.00
61472;BME280;47337;54.068;12.114;2022-12-29T13:47:34;99400.06;;;10.74;100.00
61472;BME280;47337;54.068;12.114;2022-12-29T13:50:03;99405.91;;;10.94;100.00
61472;BME280;47337;54.068;12.114;2022-12-29T13:52:37;99400.03;;;10.77;100.00
61472;BME280;47337;54.068;12.114;2022-12-29T13:56:07;99400.78;;;10.85;100.00
61472;BME280;47337;54.068;12.114;2022-12-29T14:00:59;99407.03;;;10.75;100.00
61472;BME280;47337;54.068;12.114;2022-12-29T14:03:37;99412.41;;;10.66;100.00
61472;BME280;47337;54.068;12.114;2022-12-29T14:06:34;99423.78;;;10.65;100.00
61472;BME280;47337;54.068;12.114;2022-12-29T14:09:48;99409.78;;;10.68;100.00
61472;BME280;47337;54.068;12.114;2022-12-29T14:11:54;99403.56;;;10.72;100.00
61472;BME280;47337;54.068;12.114;2022-12-29T14:14:25;99413.31;;;10.62;100.00
61472;BME280;47337;54.068;12.114;2022-12-29T14:16:53;99413.31;;;10.62;100.00
61472;BME280;47337;54.068;12.114;2022-12-29T14:19:29;99415.06;;;10.63;100.00
61472;BME280;47337;54.068;12.114;2022-12-29T14:22:00;99415.19;;;10.52;100.00
61472;BME280;47337;54.068;12.114;2022-12-29T14:34:56;99416.09;;;10.50;100.00
61472;BME280;47337;54.068;12.114;2022-12-29T14:37:25;99420.50;;;10.48;100.00
61472;BME280;47337;54.068;12.114;2022-12-29T14:42:46;99421.41;;;10.44;100.00
61472;BME280;47337;54.068;12.114;2022-12-29T14:47:50;99433.84;;;10.25;100.00
61472;BME280;47337;54.068;12.114;2022-12-29T14:50:26;99434.66;;;10.32;100.00
61472;BME280;47337;54.068;12.114;2022-12-29T14:53:00;99428.38;;;10.48;100.00
61472;BME280;47337;54.068;12.114;2022-12-29T15:00:44;99420.56;;;10.40;100.00
61472;BME280;47337;54.068;12.114;2022-12-29T15:06:13;99421.50;;;10.35;100.00
61472;BME280;47337;54.068;12.114;2022-12-29T15:11:44;99430.25;;;10.35;100.00
61472;BME280;47337;54.068;12.114;2022-12-29T15:14:29;99437.25;;;10.33;100.00
61472;BME280;47337;54.068;12.114;2022-12-29T15:16:55;99451.25;;;10.35;100.00
61472;BME280;47337;54.068;12.114;2022-12-29T15:19:27;99446.81;;;10.39;100.00
61472;BME280;47337;54.068;12.114;2022-12-29T15:21:54;99448.72;;;10.26;100.00